Time;durP1;ratioP1;P1;durP2;ratioP2;P2;SDS_P1;SDS_P2;PMS_P1;PMS_P2;Temp;Humidity;BMP_temperature;BMP_pressure;BME280_temperature;BME280_humidity;BME280_pressure;Samples;Min_cycle;Max_cycle;Signal;HPM_P1;HPM_P2
2022/06/23 00:04:27;;;;;;;12.43;4.38;;;;;;;16.53;99.90;95869.38;10373441;28;96864;-69
2022/06/23 00:09:38;;;;;;;10.05;4.22;;;;;;;16.57;100.00;95862.75;10353292;28;97113;-69
2022/06/23 00:14:42;;;;;;;17.95;4.88;;;;;;;16.62;99.92;95860.34;10366819;28;102440;-69
2022/06/23 00:19:45;;;;;;;12.27;5.28;;;;;;;16.62;100.00;95865.59;10363791;28;96893;-69
2022/06/23 00:24:52;;;;;;;10.60;5.85;;;;;;;16.67;100.00;95856.28;10358845;28;97493;-69
2022/06/23 00:30:00;;;;;;;16.95;7.05;;;;;;;16.73;100.00;95860.78;10366980;28;97242;-69
2022/06/23 00:35:06;;;;;;;12.07;5.95;;;;;;;16.77;100.00;95860.22;10362901;28;97620;-70
2022/06/23 00:40:13;;;;;;;18.25;6.97;;;;;;;16.88;99.98;95855.41;10356317;28;100895;-69
2022/06/23 00:45:25;;;;;;;9.27;5.45;;;;;;;16.86;99.81;95858.22;10357674;28;97862;-69
2022/06/23 00:50:33;;;;;;;14.55;5.60;;;;;;;16.82;100.00;95851.72;10358042;28;99163;-69
2022/06/23 00:55:45;;;;;;;13.55;5.82;;;;;;;16.82;99.93;95849.09;10367111;28;96921;-69
2022/06/23 01:00:52;;;;;;;14.60;5.78;;;;;;;16.83;100.00;95849.91;10366577;28;100690;-69
2022/06/23 01:05:59;;;;;;;12.20;5.78;;;;;;;16.88;99.80;95852.75;10349733;28;96900;-69
2022/06/23 01:11:10;;;;;;;14.10;5.32;;;;;;;16.96;100.00;95861.31;10374614;28;96946;-69
2022/06/23 01:16:18;;;;;;;13.18;5.53;;;;;;;17.11;99.82;95876.19;10366750;28;97206;-69
2022/06/23 01:21:25;;;;;;;11.57;6.40;;;;;;;17.13;99.82;95871.53;10367862;28;96808;-69
2022/06/23 01:26:48;;;;;;;11.73;5.78;;;;;;;17.06;99.68;95860.13;10373556;28;100619;-69
2022/06/23 01:31:56;;;;;;;9.38;5.82;;;;;;;16.92;99.96;95860.09;10357406;28;97683;-68
2022/06/23 01:37:02;;;;;;;14.43;5.97;;;;;;;16.89;99.81;95865.75;10364476;28;96788;-69
2022/06/23 01:42:16;;;;;;;13.75;5.80;;;;;;;16.86;100.00;95849.50;10371720;28;97967;-69
2022/06/23 01:47:31;;;;;;;9.65;5.38;;;;;;;16.86;100.00;95845.03;10363271;28;97088;-69
2022/06/23 01:52:35;;;;;;;11.95;5.85;;;;;;;16.87;100.00;95848.50;10356102;28;97249;-69
2022/06/23 01:57:45;;;;;;;13.23;5.43;;;;;;;16.78;99.89;95847.88;10361184;28;98969;-69
2022/06/23 02:02:59;;;;;;;11.80;4.95;;;;;;;16.79;100.00;95844.19;10373370;28;97115;-69
2022/06/23 02:08:12;;;;;;;13.65;5.60;;;;;;;16.71;100.00;95845.16;10366064;28;97803;-69
2022/06/23 02:13:22;;;;;;;16.50;5.18;;;;;;;16.74;100.00;95839.47;10362315;28;97963;-69
2022/06/23 02:18:33;;;;;;;11.65;5.07;;;;;;;16.74;99.96;95851.84;10365793;28;97998;-69
2022/06/23 02:23:42;;;;;;;11.73;4.95;;;;;;;16.75;100.00;95854.31;10362723;28;100008;-69
2022/06/23 02:28:50;;;;;;;9.10;4.22;;;;;;;16.71;100.00;95833.78;10361030;28;98749;-69
2022/06/23 02:33:59;;;;;;;11.15;5.18;;;;;;;16.63;100.00;95842.69;10359327;28;99041;-68
2022/06/23 02:39:07;;;;;;;8.98;4.22;;;;;;;16.71;100.00;95839.06;10363539;28;98083;-69
2022/06/23 02:44:29;;;;;;;13.77;4.72;;;;;;;16.67;100.00;95835.19;10366662;28;97813;-69
2022/06/23 02:49:53;;;;;;;11.35;4.75;;;;;;;16.63;100.00;95817.13;10367856;28;98954;-69
2022/06/23 02:55:19;;;;;;;9.32;4.65;;;;;;;16.60;100.00;95809.59;10363140;28;97059;-69
2022/06/23 03:00:28;;;;;;;12.80;5.05;;;;;;;16.51;100.00;95810.75;10359590;28;97864;-69
2022/06/23 03:05:40;;;;;;;12.15;4.65;;;;;;;16.52;100.00;95817.69;10361799;28;98541;-69
2022/06/23 03:10:50;;;;;;;12.48;5.05;;;;;;;16.52;100.00;95817.69;10362954;28;98948;-69
2022/06/23 03:16:00;;;;;;;10.93;4.55;;;;;;;16.59;100.00;95818.53;10359699;28;98647;-69
2022/06/23 03:21:08;;;;;;;12.38;4.60;;;;;;;16.74;100.00;95836.84;10360445;28;98716;-69
2022/06/23 03:26:18;;;;;;;11.55;4.05;;;;;;;16.78;100.00;95830.22;10365723;28;97945;-69
2022/06/23 03:31:27;;;;;;;10.13;4.55;;;;;;;16.68;99.97;95855.28;10363157;28;102958;-69
2022/06/23 03:36:36;;;;;;;11.07;4.72;;;;;;;16.59;100.00;95831.72;10359264;28;98427;-69
2022/06/23 03:41:45;;;;;;;10.88;4.45;;;;;;;16.66;100.00;95865.19;10364023;28;98308;-69
2022/06/23 03:46:53;;;;;;;12.73;4.75;;;;;;;16.54;100.00;95892.13;10355131;28;98791;-68
2022/06/23 03:52:02;;;;;;;10.07;5.22;;;;;;;16.56;100.00;95807.56;10360262;28;97730;-69
2022/06/23 03:57:14;;;;;;;9.05;4.60;;;;;;;16.51;100.00;95821.31;10358115;28;96891;-69
2022/06/23 04:02:21;;;;;;;11.32;5.10;;;;;;;16.51;100.00;95831.06;10359270;28;98660;-69
2022/06/23 04:07:44;;;;;;;14.07;5.13;;;;;;;16.51;100.00;95826.59;10361482;28;98475;-68
2022/06/23 04:12:52;;;;;;;12.57;4.80;;;;;;;16.60;100.00;95830.69;10361228;28;98389;-68
2022/06/23 04:17:59;;;;;;;8.75;4.90;;;;;;;16.52;100.00;95822.97;10363562;28;98514;-69
2022/06/23 04:23:07;;;;;;;16.25;6.15;;;;;;;16.52;100.00;95822.97;10357366;28;96933;-69
2022/06/23 04:28:20;;;;;;;15.73;5.28;;;;;;;16.56;100.00;95824.19;10361857;28;97546;-69
2022/06/23 04:33:26;;;;;;;10.30;4.72;;;;;;;16.60;100.00;95829.88;10353580;28;98229;-69
2022/06/23 04:38:37;;;;;;;10.25;4.20;;;;;;;16.65;100.00;95824.03;10357982;28;98424;-68
2022/06/23 04:43:43;;;;;;;7.57;4.03;;;;;;;16.82;100.00;95828.00;10353140;28;97001;-68
2022/06/23 04:48:55;;;;;;;11.35;4.65;;;;;;;17.11;100.00;95823.41;10356927;28;98103;-68
2022/06/23 04:54:06;;;;;;;8.80;3.83;;;;;;;17.26;100.00;95839.09;10357818;28;96956;-69
2022/06/23 04:59:37;;;;;;;12.45;4.47;;;;;;;17.46;100.00;95831.22;10354744;28;97598;-69
2022/06/23 05:04:44;;;;;;;10.52;4.75;;;;;;;17.54;100.00;95839.75;10361214;28;98888;-69
2022/06/23 05:09:52;;;;;;;8.55;4.38;;;;;;;17.62;100.00;95817.63;10359099;28;96957;-69
2022/06/23 05:15:01;;;;;;;10.98;5.15;;;;;;;17.70;100.00;95825.34;10355728;28;97028;-69
2022/06/23 05:20:07;;;;;;;10.50;4.47;;;;;;;17.80;100.00;95826.75;10363807;28;98483;-69
2022/06/23 05:25:29;;;;;;;9.70;4.65;;;;;;;17.83;100.00;95834.28;10359734;28;97929;-69
2022/06/23 05:30:35;;;;;;;10.50;4.88;;;;;;;17.85;100.00;95832.28;10355872;28;97003;-69
2022/06/23 05:35:42;;;;;;;10.63;4.82;;;;;;;17.89;100.00;95830.84;10349302;28;97080;-69
2022/06/23 05:40:52;;;;;;;9.15;4.97;;;;;;;17.90;100.00;95825.38;10359646;28;99187;-69
2022/06/23 05:45:57;;;;;;;9.02;4.15;;;;;;;17.83;100.00;95832.47;10357879;28;98093;-69
2022/06/23 05:51:06;;;;;;;10.35;3.70;;;;;;;17.81;100.00;95836.34;10357696;28;97275;-69
2022/06/23 05:56:17;;;;;;;9.48;4.50;;;;;;;17.64;100.00;95831.44;10359547;28;98906;-69
2022/06/23 06:01:26;;;;;;;9.25;4.10;;;;;;;17.67;100.00;95840.78;10361464;28;98989;-69
2022/06/23 06:06:29;;;;;;;10.43;4.03;;;;;;;17.81;100.00;95831.84;10361578;28;98697;-69
2022/06/23 06:11:35;;;;;;;10.23;4.40;;;;;;;17.98;100.00;95824.38;10362817;28;96950;-69
2022/06/23 06:16:43;;;;;;;12.25;4.13;;;;;;;18.08;100.00;95816.00;10361675;28;97010;-69
2022/06/23 06:21:48;;;;;;;10.60;5.20;;;;;;;18.34;100.00;95804.56;10368912;28;97101;-69
2022/06/23 06:26:55;;;;;;;9.57;4.53;;;;;;;18.40;100.00;95806.41;10366481;28;98322;-69
2022/06/23 06:32:03;;;;;;;10.27;3.63;;;;;;;18.44;100.00;95810.25;10364626;28;96871;-70
2022/06/23 06:37:10;;;;;;;9.45;3.60;;;;;;;18.55;99.61;95805.34;10347454;28;96912;-70
2022/06/23 06:42:17;;;;;;;9.07;4.05;;;;;;;18.82;100.00;95804.22;10359775;28;96843;-69
2022/06/23 06:47:22;;;;;;;11.73;3.22;;;;;;;18.88;99.46;95787.53;10358498;28;98664;-70
2022/06/23 06:52:26;;;;;;;7.78;3.55;;;;;;;19.02;98.92;95796.22;10354310;28;97975;-70
2022/06/23 06:57:36;;;;;;;8.53;3.83;;;;;;;19.35;99.31;95800.53;10362459;28;98751;-70
2022/06/23 07:02:45;;;;;;;9.13;3.28;;;;;;;19.50;98.08;95813.44;10362169;28;98708;-69
2022/06/23 07:07:56;;;;;;;7.13;3.28;;;;;;;19.58;98.16;95807.09;10355645;28;97715;-67
2022/06/23 07:13:07;;;;;;;8.32;3.40;;;;;;;19.73;98.80;95817.38;10363553;28;96925;-67
2022/06/23 07:18:18;;;;;;;6.75;2.97;;;;;;;19.73;97.90;95809.41;10360588;28;97280;-67
2022/06/23 07:23:28;;;;;;;7.35;3.10;;;;;;;19.87;97.28;95803.03;10364905;28;97035;-67
2022/06/23 07:28:38;;;;;;;9.70;3.75;;;;;;;19.74;96.87;95798.59;10358135;28;98581;-67
2022/06/23 07:33:45;;;;;;;7.70;3.10;;;;;;;19.77;96.96;95802.69;10375907;28;96993;-67
2022/06/23 07:38:54;;;;;;;8.48;3.08;;;;;;;19.81;96.24;95799.34;10375047;28;96948;-67
2022/06/23 07:44:03;;;;;;;8.85;3.00;;;;;;;19.79;96.48;95793.47;10360001;28;97149;-67
2022/06/23 07:49:07;;;;;;;6.57;2.78;;;;;;;19.94;96.64;95785.22;10362897;28;99748;-67
2022/06/23 07:54:15;;;;;;;8.35;2.80;;;;;;;19.93;95.71;95780.94;10366423;28;96924;-67
2022/06/23 07:59:23;;;;;;;6.10;2.72;;;;;;;19.84;94.65;95782.25;10363409;28;97133;-67
2022/06/23 08:04:32;;;;;;;5.63;2.40;;;;;;;19.84;94.21;95798.16;10361633;28;96870;-67
2022/06/23 08:09:39;;;;;;;6.63;3.05;;;;;;;19.81;94.12;95786.09;10356908;28;96827;-67
2022/06/23 08:14:49;;;;;;;7.25;2.58;;;;;;;20.07;93.20;95786.94;10359287;28;97757;-67
2022/06/23 08:19:58;;;;;;;6.43;2.55;;;;;;;20.29;92.62;95776.72;10356907;28;97037;-67
2022/06/23 08:25:04;;;;;;;7.82;3.03;;;;;;;20.55;94.02;95765.00;10353559;28;96859;-67
2022/06/23 08:30:26;;;;;;;8.70;3.65;;;;;;;20.87;94.00;95761.38;10352969;28;98605;-68
2022/06/23 08:35:37;;;;;;;6.35;2.45;;;;;;;20.72;91.37;95761.75;10356594;28;97012;-67
2022/06/23 08:40:58;;;;;;;9.50;2.95;;;;;;;20.54;91.15;95762.56;10358078;28;98569;-67
2022/06/23 08:46:10;;;;;;;7.35;2.50;;;;;;;20.72;91.50;95767.03;10360172;28;99394;-67
2022/06/23 08:51:22;;;;;;;8.50;2.40;;;;;;;20.97;91.15;95764.31;10352571;28;98740;-67
2022/06/23 08:56:30;;;;;;;8.02;3.03;;;;;;;21.22;91.79;95752.75;10357005;28;97679;-67
2022/06/23 09:01:40;;;;;;;9.27;2.88;;;;;;;21.15;89.86;95754.69;10352266;28;97715;-67
2022/06/23 09:06:52;;;;;;;7.20;2.90;;;;;;;21.07;89.84;95745.22;10350759;28;97722;-67
2022/06/23 09:12:02;;;;;;;11.93;3.10;;;;;;;21.19;89.64;95735.44;10355297;28;96905;-67
2022/06/23 09:17:35;;;;;;;7.28;2.60;;;;;;;21.19;87.39;95737.25;10351668;28;97581;-68
2022/06/23 09:23:02;;;;;;;6.45;2.78;;;;;;;20.97;87.63;95731.66;10361437;28;98692;-68
2022/06/23 09:28:16;;;;;;;6.55;2.30;;;;;;;20.90;87.87;95737.84;10353060;28;97088;-68
2022/06/23 09:33:32;;;;;;;7.18;3.08;;;;;;;21.14;88.08;95727.31;10363287;28;97175;-68
2022/06/23 09:39:05;;;;;;;7.00;2.78;;;;;;;21.23;88.62;95719.84;10372841;28;97023;-68
2022/06/23 09:44:37;;;;;;;11.80;4.20;;;;;;;21.19;88.43;95702.72;10375713;28;101123;-68
2022/06/23 09:49:58;;;;;;;7.53;3.25;;;;;;;21.09;87.33;95682.84;10343947;28;97973;-68
2022/06/23 09:55:35;;;;;;;8.07;2.47;;;;;;;21.23;87.17;95680.00;10363617;28;98266;-68
2022/06/23 10:00:47;;;;;;;6.68;2.70;;;;;;;21.32;86.52;95674.09;10363560;28;98305;-68
2022/06/23 10:06:06;;;;;;;6.88;2.78;;;;;;;21.49;85.65;95670.78;10356217;28;98426;-68
2022/06/23 10:11:41;;;;;;;8.48;3.67;;;;;;;21.55;86.25;95661.88;10366753;28;97079;-68
2022/06/23 10:16:59;;;;;;;9.95;2.80;;;;;;;21.79;84.72;95660.06;10366835;28;98566;-69
2022/06/23 10:22:20;;;;;;;9.18;2.80;;;;;;;21.92;83.22;95663.50;10372240;28;98017;-71
2022/06/23 10:27:40;;;;;;;8.82;3.40;;;;;;;22.04;83.27;95661.66;10372582;28;100908;-71
2022/06/23 10:33:10;;;;;;;9.82;3.13;;;;;;;22.32;82.86;95662.72;10359517;28;96913;-71
2022/06/23 10:38:39;;;;;;;8.85;3.05;;;;;;;22.58;80.90;95654.25;10368204;28;97057;-71
2022/06/23 10:43:57;;;;;;;6.80;2.85;;;;;;;22.87;80.08;95658.72;10365044;28;98001;-72
2022/06/23 10:49:19;;;;;;;9.30;3.55;;;;;;;23.08;79.94;95655.38;10370464;28;96860;-71
2022/06/23 10:55:01;;;;;;;9.05;3.55;;;;;;;23.29;80.41;95640.56;10368602;28;97180;-71
2022/06/23 11:00:12;;;;;;;7.88;2.88;;;;;;;23.32;78.79;95637.41;10313457;28;96908;-71
2022/06/23 11:05:29;;;;;;;10.30;3.13;;;;;;;23.11;76.27;95633.56;10312623;28;98251;-71
2022/06/23 11:10:49;;;;;;;10.73;2.92;;;;;;;23.11;76.17;95622.91;10298064;28;97042;-72
2022/06/23 11:16:02;;;;;;;11.20;2.83;;;;;;;22.97;76.03;95617.09;10317572;28;97232;-72
2022/06/23 11:21:24;;;;;;;9.77;2.80;;;;;;;22.93;76.64;95607.97;10305044;28;97093;-72
2022/06/23 11:26:43;;;;;;;9.00;2.97;;;;;;;23.20;77.51;95594.00;10315972;28;97110;-71
2022/06/23 11:31:55;;;;;;;12.82;3.33;;;;;;;23.16;75.56;95601.69;10310804;28;98981;-71
2022/06/23 11:37:17;;;;;;;11.05;3.45;;;;;;;23.12;76.77;95608.56;10372658;28;96785;-71
2022/06/23 11:42:42;;;;;;;7.78;2.88;;;;;;;23.35;76.11;95602.28;10362116;28;97108;-72
2022/06/23 11:47:55;;;;;;;8.20;3.00;;;;;;;23.61;74.49;95602.63;10358342;28;96985;-71
2022/06/23 11:53:12;;;;;;;9.32;2.67;;;;;;;23.74;74.88;95593.47;10347856;28;96823;-72
2022/06/23 11:58:42;;;;;;;10.70;3.00;;;;;;;23.70;74.78;95585.16;10359099;28;96906;-72
2022/06/23 12:04:00;;;;;;;8.18;2.95;;;;;;;23.79;73.29;95574.88;10356578;28;96856;-72
2022/06/23 12:09:14;;;;;;;13.60;3.47;;;;;;;23.88;72.15;95556.56;10357994;28;99891;-72
2022/06/23 12:14:19;;;;;;;10.43;3.00;;;;;;;23.99;72.38;95539.66;10362559;28;96886;-72
2022/06/23 12:19:27;;;;;;;11.40;3.67;;;;;;;24.30;72.09;95532.00;10350617;28;96801;-72
2022/06/23 12:24:39;;;;;;;9.07;2.60;;;;;;;24.76;71.76;95532.41;10356722;28;96978;-72
2022/06/23 12:29:54;;;;;;;9.70;3.03;;;;;;;25.29;71.12;95526.41;10353758;28;96758;-72
2022/06/23 12:35:03;;;;;;;11.88;3.33;;;;;;;25.56;69.20;95516.41;10364596;28;97026;-72
2022/06/23 12:40:13;;;;;;;11.80;3.28;;;;;;;25.85;69.30;95524.03;10353437;28;96727;-72
2022/06/23 12:45:38;;;;;;;11.30;3.70;;;;;;;26.25;69.91;95517.22;10370137;28;96802;-72
2022/06/23 12:50:51;;;;;;;11.57;3.13;;;;;;;26.61;67.29;95498.50;10356502;28;96765;-72
2022/06/23 12:56:12;;;;;;;12.60;3.57;;;;;;;26.65;67.52;95504.94;10345472;28;96996;-72
2022/06/23 13:01:21;;;;;;;11.35;3.20;;;;;;;26.54;66.60;95498.78;10345971;28;97045;-72
2022/06/23 13:06:33;;;;;;;12.80;3.42;;;;;;;26.53;65.47;95491.78;10376789;28;97049;-72
2022/06/23 13:11:46;;;;;;;13.07;3.40;;;;;;;26.60;66.88;95472.00;10362212;28;96732;-73
2022/06/23 13:16:58;;;;;;;9.50;3.10;;;;;;;26.73;68.80;95474.94;10366139;28;96940;-72
2022/06/23 13:22:08;;;;;;;11.53;3.17;;;;;;;27.14;65.11;95473.31;10358604;28;98239;-73
2022/06/23 13:27:19;;;;;;;14.82;3.22;;;;;;;27.48;64.17;95460.06;10361055;28;97016;-73
2022/06/23 13:32:28;;;;;;;11.30;3.38;;;;;;;27.82;64.29;95457.53;10357656;28;96842;-72
2022/06/23 13:37:41;;;;;;;10.68;3.10;;;;;;;27.71;61.68;95434.50;10352924;28;96936;-73
2022/06/23 13:42:51;;;;;;;13.93;3.80;;;;;;;27.64;61.15;95423.28;10363296;28;96925;-73
2022/06/23 13:48:02;;;;;;;14.90;3.65;;;;;;;27.93;61.46;95433.31;10362948;28;97075;-73
2022/06/23 13:53:09;;;;;;;13.80;3.40;;;;;;;27.93;60.04;95434.13;10364448;28;96886;-73
2022/06/23 13:58:20;;;;;;;12.40;3.50;;;;;;;27.83;61.20;95450.28;10367250;28;96874;-74
2022/06/23 14:03:38;;;;;;;9.50;3.15;;;;;;;27.38;63.01;95452.84;10362738;28;97012;-73
2022/06/23 14:08:47;;;;;;;11.00;3.55;;;;;;;26.60;62.53;95454.03;10361323;28;96899;-74
2022/06/23 14:14:03;;;;;;;12.70;3.70;;;;;;;26.04;61.61;95449.41;10349716;28;96759;-74
2022/06/23 14:19:14;;;;;;;14.65;3.72;;;;;;;25.58;65.75;95466.16;10358344;28;97017;-74
2022/06/23 14:24:23;;;;;;;11.70;3.42;;;;;;;25.10;65.99;95460.00;10360799;28;96902;-74
2022/06/23 14:29:37;;;;;;;11.95;3.40;;;;;;;24.49;64.92;95461.16;10357810;28;96976;-74
2022/06/23 14:34:47;;;;;;;10.50;3.58;;;;;;;23.93;66.72;95460.59;10349129;28;97265;-74
2022/06/23 14:39:53;;;;;;;15.63;3.95;;;;;;;23.41;68.96;95487.72;10359746;28;96910;-74
2022/06/23 14:45:11;;;;;;;12.20;4.10;;;;;;;22.77;72.17;95510.28;10362035;28;96766;-74
2022/06/23 14:50:34;;;;;;;8.55;3.35;;;;;;;21.82;74.43;95516.03;10353685;28;98731;-73
2022/06/23 14:55:46;;;;;;;6.22;2.70;;;;;;;20.19;73.35;95497.97;10348915;27;96702;-73
2022/06/23 15:00:57;;;;;;;10.77;2.55;;;;;;;18.69;77.46;95447.13;10358631;28;96769;-72
2022/06/23 15:06:15;;;;;;;9.27;2.47;;;;;;;18.20;78.96;95454.81;10358477;28;96976;-72
2022/06/23 15:11:22;;;;;;;9.00;2.70;;;;;;;18.31;79.93;95498.28;10352984;28;99630;-72
2022/06/23 15:16:32;;;;;;;9.38;2.70;;;;;;;18.58;81.90;95541.19;10352797;28;96872;-72
2022/06/23 15:27:11;;;;;;;6.13;2.03;;;;;;;19.28;82.30;95576.47;10358353;28;96817;-72
2022/06/23 15:32:23;;;;;;;7.72;2.42;;;;;;;19.28;82.90;95592.38;10365541;28;96878;-72
2022/06/23 15:37:40;;;;;;;9.07;2.15;;;;;;;19.36;82.04;95579.66;10350909;28;99089;-72
2022/06/23 15:42:56;;;;;;;6.60;2.03;;;;;;;19.64;82.54;95581.00;10358979;28;97029;-72
2022/06/23 15:48:05;;;;;;;4.93;1.63;;;;;;;20.32;83.09;95550.84;10358479;28;96802;-72
2022/06/23 15:53:15;;;;;;;7.28;2.10;;;;;;;20.95;82.87;95564.59;10361541;28;97107;-72
2022/06/23 15:58:24;;;;;;;6.22;2.10;;;;;;;21.28;82.99;95563.25;10362068;28;99831;-73
2022/06/23 16:03:33;;;;;;;4.60;2.20;;;;;;;21.62;82.92;95588.19;10357445;28;97028;-73
2022/06/23 16:08:47;;;;;;;6.03;2.00;;;;;;;22.76;81.44;95597.31;10356515;28;96897;-72
2022/06/23 16:13:55;;;;;;;4.35;1.85;;;;;;;22.88;79.59;95612.44;10347767;28;97110;-73
2022/06/23 16:19:04;;;;;;;5.18;1.65;;;;;;;22.10;78.61;95625.31;10354013;28;96780;-73
2022/06/23 16:24:19;;;;;;;6.13;1.95;;;;;;;21.31;77.51;95639.78;10357095;28;96948;-73
2022/06/23 16:29:27;;;;;;;5.63;2.38;;;;;;;20.67;79.91;95627.06;10351776;28;96925;-73
2022/06/23 16:34:39;;;;;;;7.05;2.10;;;;;;;20.21;80.59;95607.28;10348960;28;96931;-73
2022/06/23 16:39:48;;;;;;;7.97;2.08;;;;;;;19.96;82.37;95621.44;10356980;28;96806;-73
2022/06/23 16:44:57;;;;;;;11.75;2.45;;;;;;;20.03;82.56;95644.44;10357675;28;97059;-73
2022/06/23 16:50:05;;;;;;;6.43;2.40;;;;;;;20.13;82.55;95650.84;10345618;28;97774;-73
2022/06/23 16:55:24;;;;;;;7.63;2.22;;;;;;;20.21;83.05;95644.41;10353269;28;96864;-73
2022/06/23 17:00:59;;;;;;;7.10;3.30;;;;;;;20.39;83.85;95662.16;10355297;28;97091;-73
2022/06/23 17:06:09;;;;;;;5.15;2.35;;;;;;;20.44;83.15;95674.72;10351452;28;96893;-73
2022/06/23 17:11:23;;;;;;;7.75;2.15;;;;;;;20.23;81.06;95686.63;10346787;28;97234;-71
2022/06/23 17:16:32;;;;;;;5.05;2.22;;;;;;;19.96;81.90;95695.69;10363215;28;98444;-73
2022/06/23 17:21:39;;;;;;;5.25;2.47;;;;;;;19.80;82.52;95693.56;10365619;28;96796;-73
2022/06/23 17:26:50;;;;;;;6.72;2.20;;;;;;;19.71;83.81;95689.56;10371988;28;96847;-73
2022/06/23 17:31:59;;;;;;;9.98;2.13;;;;;;;19.55;83.58;95678.50;10364649;28;97566;-73
2022/06/23 17:37:13;;;;;;;6.05;2.30;;;;;;;19.40;84.47;95691.28;10354705;28;96786;-73
2022/06/23 17:47:51;;;;;;;8.18;2.80;;;;;;;19.31;84.93;95697.88;10360636;28;97236;-73
2022/06/23 17:52:55;;;;;;;8.32;2.97;;;;;;;19.36;85.25;95695.38;10371049;27;97075;-73
2022/06/23 17:58:07;;;;;;;7.97;3.05;;;;;;;19.54;85.32;95714.00;10373181;28;96873;-73
2022/06/23 18:03:18;;;;;;;7.30;3.15;;;;;;;19.67;85.96;95693.69;10379528;28;98539;-74
2022/06/23 18:08:26;;;;;;;10.32;3.13;;;;;;;19.80;85.28;95709.47;10369527;28;97253;-73
2022/06/23 18:13:43;;;;;;;10.25;2.75;;;;;;;19.80;84.04;95701.50;10374595;28;97865;-74
2022/06/23 18:18:52;;;;;;;8.02;2.78;;;;;;;19.60;84.88;95699.84;10379200;28;97067;-73
2022/06/23 18:24:00;;;;;;;11.70;3.17;;;;;;;19.46;86.33;95706.31;10362294;28;97327;-73
2022/06/23 18:29:10;;;;;;;8.88;3.30;;;;;;;19.30;86.56;95706.84;10359837;28;97999;-73
2022/06/23 18:34:24;;;;;;;7.95;3.90;;;;;;;19.24;88.15;95706.69;10363653;28;97874;-73
2022/06/23 18:39:39;;;;;;;9.95;3.53;;;;;;;19.18;87.63;95704.88;10369508;28;100973;-71
2022/06/23 18:44:48;;;;;;;11.65;4.03;;;;;;;19.21;87.06;95680.63;10362478;28;96956;-73
2022/06/23 18:49:55;;;;;;;11.23;3.58;;;;;;;19.15;86.47;95684.13;10368268;28;96929;-72
2022/06/23 18:55:02;;;;;;;7.38;3.50;;;;;;;19.13;86.73;95680.91;10356964;28;98006;-74
2022/06/23 19:00:10;;;;;;;9.20;3.30;;;;;;;19.19;86.75;95685.34;10362634;28;97920;-73
2022/06/23 19:05:21;;;;;;;11.15;3.95;;;;;;;19.20;86.49;95675.56;10362102;28;99450;-73
2022/06/23 19:10:39;;;;;;;8.23;3.40;;;;;;;19.11;86.63;95676.84;10365859;28;97151;-74
2022/06/23 19:15:50;;;;;;;8.43;3.25;;;;;;;19.01;86.60;95675.47;10371116;28;97155;-75
2022/06/23 19:20:59;;;;;;;10.68;3.85;;;;;;;18.90;86.56;95672.69;10362697;28;96957;-74
2022/06/23 19:26:10;;;;;;;10.25;3.83;;;;;;;18.70;87.23;95670.97;10357036;28;97968;-74
2022/06/23 19:31:21;;;;;;;10.25;3.67;;;;;;;18.50;88.12;95693.03;10364473;28;96893;-72
2022/06/23 19:36:38;;;;;;;9.13;3.65;;;;;;;18.36;87.70;95707.34;10362404;28;97091;-74
2022/06/23 19:41:55;;;;;;;7.32;3.22;;;;;;;18.23;88.09;95704.75;10353095;28;98171;-72
2022/06/23 19:47:01;;;;;;;9.65;2.78;;;;;;;17.93;87.34;95702.59;10366935;28;97131;-72
2022/06/23 19:52:04;;;;;;;7.10;2.70;;;;;;;17.68;87.27;95720.88;10356247;28;97177;-76
2022/06/23 19:57:16;;;;;;;7.93;2.90;;;;;;;17.43;87.12;95723.34;10365292;28;98679;-72
2022/06/23 20:02:42;;;;;;;5.85;2.35;;;;;;;17.23;87.23;95731.25;10365069;28;96749;-70
2022/06/23 20:07:49;;;;;;;7.90;2.80;;;;;;;17.09;87.60;95728.63;10367034;28;97421;-74
2022/06/23 20:12:59;;;;;;;8.45;3.13;;;;;;;16.99;88.12;95734.28;10365121;28;101198;-72
2022/06/23 20:18:05;;;;;;;8.65;2.70;;;;;;;16.92;87.43;95738.72;10365473;28;97113;-72
2022/06/23 20:23:18;;;;;;;6.32;3.05;;;;;;;16.79;87.95;95734.22;10369113;28;96907;-73
2022/06/23 20:28:36;;;;;;;10.23;3.03;;;;;;;16.70;88.37;95747.78;10351052;28;98387;-71
2022/06/23 20:34:03;;;;;;;9.80;3.22;;;;;;;16.72;88.29;95749.19;10359847;28;97121;-76
2022/06/23 20:39:27;;;;;;;65.47;45.53;;;;;;;16.66;88.36;95743.88;10353751;28;97755;-74
2022/06/23 20:44:48;;;;;;;9.02;3.53;;;;;;;16.66;88.09;95757.06;10360046;28;97157;-74
2022/06/23 20:50:06;;;;;;;11.68;3.97;;;;;;;16.55;88.71;95767.16;10360578;28;97275;-74
2022/06/23 20:55:23;;;;;;;9.25;3.38;;;;;;;16.51;89.43;95765.94;10367184;28;96997;-73
2022/06/23 21:00:32;;;;;;;13.30;3.75;;;;;;;16.53;89.10;95765.75;10353711;28;97176;-72
2022/06/23 21:05:44;;;;;;;10.50;4.07;;;;;;;16.49;89.46;95765.34;10358902;28;96823;-72
2022/06/23 21:10:55;;;;;;;15.07;6.65;;;;;;;16.46;89.06;95767.56;10362019;28;97022;-74
2022/06/23 21:16:08;;;;;;;12.68;4.70;;;;;;;16.47;88.92;95748.91;10361218;28;100501;-71
2022/06/23 21:21:26;;;;;;;7.95;4.20;;;;;;;16.42;89.09;95759.22;10353436;28;96994;-71
2022/06/23 21:26:40;;;;;;;11.38;4.90;;;;;;;16.36;89.16;95755.56;10361332;28;97200;-69
2022/06/23 21:31:52;;;;;;;12.50;4.22;;;;;;;16.36;89.47;95754.72;10365588;28;98856;-70
2022/06/23 21:36:59;;;;;;;9.18;3.58;;;;;;;16.33;89.51;95760.38;10365393;28;98514;-72
2022/06/23 21:42:06;;;;;;;14.18;3.85;;;;;;;16.33;88.98;95765.66;10369002;28;98942;-77
2022/06/23 21:47:21;;;;;;;10.82;3.83;;;;;;;16.27;89.34;95754.06;10368936;28;98136;-77
2022/06/23 21:52:39;;;;;;;11.23;3.80;;;;;;;16.34;89.79;95754.09;10371421;28;97194;-77
2022/06/23 21:58:03;;;;;;;10.75;3.85;;;;;;;16.28;89.87;95762.81;10366608;28;98333;-78
2022/06/23 22:03:14;;;;;;;13.88;4.38;;;;;;;16.23;90.09;95753.66;10362119;28;97890;-76
2022/06/23 22:08:26;;;;;;;11.27;3.85;;;;;;;16.25;89.85;95759.53;10369234;28;97468;-77
2022/06/23 22:13:30;;;;;;;13.93;4.45;;;;;;;16.17;90.28;95757.06;10365156;28;98478;-72
2022/06/23 22:18:41;;;;;;;11.48;3.70;;;;;;;16.14;90.44;95760.09;10360315;28;97879;-71
2022/06/23 22:29:40;;;;;;;15.35;4.40;;;;;;;15.94;90.40;95746.78;10351769;28;97576;-71
2022/06/23 22:34:59;;;;;;;15.35;4.80;;;;;;;15.95;90.33;95739.72;10362176;28;97390;-71
2022/06/23 22:40:27;;;;;;;13.23;4.68;;;;;;;15.85;90.38;95746.13;10368204;28;98348;-71
2022/06/23 22:45:55;;;;;;;12.93;4.35;;;;;;;15.83;91.03;95750.78;10363710;28;96954;-71
2022/06/23 22:51:02;;;;;;;18.55;7.15;;;;;;;15.84;90.80;95747.16;10362712;28;98409;-71
2022/06/23 22:56:10;;;;;;;10.73;4.40;;;;;;;15.80;90.98;95751.16;10359252;28;97176;-71
2022/06/23 23:01:14;;;;;;;11.85;3.75;;;;;;;15.71;91.12;95747.06;10358770;28;97495;-72
2022/06/23 23:06:23;;;;;;;12.85;4.63;;;;;;;15.56;90.93;95748.94;10356928;28;98309;-72
2022/06/23 23:11:37;;;;;;;11.93;4.93;;;;;;;15.53;91.70;95754.56;10360220;28;97013;-71
2022/06/23 23:16:44;;;;;;;11.97;4.73;;;;;;;15.43;91.65;95765.44;10354161;28;96866;-71
2022/06/23 23:21:48;;;;;;;11.15;4.80;;;;;;;15.50;91.45;95764.47;10365137;28;97528;-70
2022/06/23 23:26:57;;;;;;;9.60;4.60;;;;;;;15.60;91.58;95752.81;10354775;28;97702;-71
2022/06/23 23:32:11;;;;;;;10.60;4.75;;;;;;;15.52;91.55;95766.13;10365172;28;96869;-71
2022/06/23 23:37:13;;;;;;;9.77;4.20;;;;;;;15.46;91.43;95755.34;10355633;28;99069;-71
2022/06/23 23:42:20;;;;;;;12.05;4.88;;;;;;;15.45;91.96;95752.91;10361467;28;97110;-72
2022/06/23 23:47:28;;;;;;;8.27;4.47;;;;;;;15.46;92.10;95747.44;10353353;28;97110;-71
2022/06/23 23:52:34;;;;;;;11.52;4.65;;;;;;;15.37;91.80;95751.19;10351061;28;99023;-71
2022/06/23 23:57:42;;;;;;;11.68;4.97;;;;;;;15.31;91.78;95749.34;10352151;28;98330;-70
